Latest Weather Observations for Redcliffe

IDQ60801

Issued at 4:12 pm EST Sunday 15 September 2019 (issued every 10 minutes, with the page automatically refreshed every 10 minutes)

About weather observations | Map of weather stations | Latest weather observations for QLD | Other Formats
Station Details ID: 040958 Name: REDCLIFFE Lat: -27.22 Lon: 153.09 Height: 12.6 m
Data from the previous 72 hours. | See also: Recent months at Redcliffe
Date/Time
EST
Temp
°C
App
Temp
°C
Dew
Point
°C
Rel
Hum
%
Delta-T
°C
Wind Press
QNH
hPa
Press
MSL
hPa
Rain since
9am
mm
Dir  Spd
km/h
Gust
km/h
Spd
kts
Gust
kts
15/04:00pm 20.6 15.7 11.2 55 5.2 NE 28 32 15 17 1022.5 1022.5 0.0
15/03:30pm 21.2 16.3 11.2 53 5.5 NE 28 30 15 16 1022.4 1022.4 0.0
15/03:00pm 21.9 18.5 10.4 48 6.3 ENE 19 22 10 12 1022.6 1022.6 0.0
15/02:30pm 21.2 19.0 10.7 51 5.7 ENE 13 19 7 10 1022.8 1022.8 0.0
15/02:00pm 21.5 19.8 12.4 56 5.1 ESE 13 15 7 8 1022.9 1022.9 0.0
15/01:30pm 23.0 21.8 14.0 57 5.3 ESE 13 15 7 8 1023.3 1023.3 0.0
15/01:00pm 21.7 20.5 11.7 53 5.6 ESE 9 11 5 6 1023.8 1023.8 0.0
15/12:30pm 21.9 21.1 11.6 52 5.7 ESE 7 7 4 4 1024.2 1024.2 0.0
15/12:00pm 21.6 20.2 11.0 51 5.8 SSE 9 11 5 6 1024.5 1024.5 0.0
15/11:30am 21.9 20.5 12.2 54 5.5 SSE 11 11 6 6 1024.7 1024.7 0.0
15/11:00am 21.0 19.5 11.9 56 5.1 SSE 11 11 6 6 1024.9 1024.9 0.0
15/10:30am 21.3 20.2 13.0 59 4.7 SSE 11 11 6 6 1025.2 1025.2 0.0
15/10:00am 21.2 19.9 12.6 58 4.8 SSE 11 11 6 6 1025.7 1025.7 0.0
15/09:30am 20.8 19.0 12.2 58 4.8 S 13 15 7 8 1025.8 1025.8 0.0
15/09:00am 20.5 18.7 12.0 58 4.7 S 13 17 7 9 1025.8 1025.8 0.0
15/08:30am 20.0 17.8 12.0 60 4.5 S 15 17 8 9 1025.7 1025.7 0.0
15/08:00am 19.3 17.3 12.8 66 3.6 SSW 15 19 8 10 1025.6 1025.6 0.0
15/07:30am 17.5 16.0 13.2 76 2.4 SW 13 15 7 8 1025.4 1025.4 0.0
15/07:00am 15.6 14.3 12.4 81 1.7 WSW 11 13 6 7 1024.9 1024.9 0.0
15/06:30am 14.4 12.5 11.9 85 1.3 WSW 13 15 7 8 1024.4 1024.4 0.0
15/06:00am 13.9 12.3 11.6 86 1.2 WSW 11 13 6 7 1024.0 1024.0 0.0
15/05:30am 14.1 12.6 11.8 86 1.2 SW 11 15 6 8 1023.7 1023.7 0.0
15/05:00am 14.3 12.8 11.8 85 1.3 WSW 11 13 6 7 1023.4 1023.4 0.0
15/04:30am 14.7 13.2 12.0 84 1.5 SW 11 13 6 7 1023.1 1023.1 0.0
15/04:00am 14.7 13.2 11.8 83 1.6 WSW 11 13 6 7 1023.1 1023.1 0.0
15/03:30am 14.8 12.9 11.8 82 1.6 WSW 13 17 7 9 1023.0 1023.0 0.0
15/03:00am 14.9 13.3 11.5 80 1.8 WSW 11 13 6 7 1022.9 1022.9 0.0
15/02:30am 15.5 14.3 11.7 78 2.1 SW 9 17 5 9 1023.0 1023.0 0.0
15/02:00am 17.3 14.9 13.8 80 2.0 SSE 19 22 10 12 1023.1 1023.1 0.0
15/01:30am 17.7 15.4 14.0 79 2.1 SSE 19 22 10 12 1023.2 1023.2 0.0
15/01:00am 18.1 15.2 14.0 77 2.3 SSE 22 26 12 14 1023.4 1023.4 0.0
15/12:30am 17.7 15.3 13.8 78 2.2 SSE 19 20 10 11 1023.6 1023.6 0.0
15/12:00am 18.0 14.9 13.5 75 2.5 SSE 22 26 12 14 1023.5 1023.5 0.0
 
Date/Time
EST
Temp
°C
App
Temp
°C
Dew
Point
°C
Rel
Hum
%
Delta-T
°C
Wind Press
QNH
hPa
Press
MSL
hPa
Rain since
9am
mm
Dir  Spd
km/h
Gust
km/h
Spd
kts
Gust
kts
14/11:30pm 18.4 14.9 13.5 73 2.8 SSE 24 28 13 15 1023.6 1023.6 0.0
14/11:00pm 18.5 13.9 13.4 72 2.9 SSE 30 35 16 19 1023.5 1023.5 0.0
14/10:30pm 18.6 14.3 13.2 71 3.1 SSE 28 33 15 18 1023.6 1023.6 0.0
14/10:00pm 18.9 15.2 12.6 67 3.5 SSE 24 32 13 17 1023.5 1023.5 0.0
14/09:30pm 19.3 15.0 12.1 63 4.0 SSE 26 32 14 17 1023.5 1023.5 0.0
14/09:00pm 19.4 15.4 11.7 61 4.2 SSE 24 30 13 16 1023.2 1023.2 0.0
14/08:30pm 19.6 14.7 12.4 63 4.0 SSE 30 33 16 18 1022.9 1022.9 0.0
14/08:00pm 19.7 14.0 12.9 65 3.8 SSE 35 41 19 22 1022.6 1022.6 0.0
14/07:30pm 20.5 16.5 15.1 71 3.2 SSE 30 37 16 20 1022.0 1022.0 0.0
14/07:05pm 19.1 17.5 16.1 83 1.8 NE 19 33 10 18 1021.2 1021.2 0.0
14/07:00pm 19.6 19.4 16.6 83 1.8 NNE 13 19 7 10 1020.4 1020.4 0.0
14/06:30pm 19.8 18.2 16.6 82 1.9 N 20 24 11 13 1019.5 1019.4 0.0
14/06:00pm 20.2 18.6 16.4 79 2.3 NNE 20 24 11 13 1019.1 1019.0 0.0
14/05:30pm 20.8 18.7 16.2 75 2.8 NNE 22 26 12 14 1018.7 1018.6 0.0
14/05:00pm 21.6 18.4 15.2 67 3.8 NNE 26 28 14 15 1018.2 1018.1 0.0
14/04:30pm 22.4 18.9 14.5 61 4.6 NE 26 30 14 16 1018.1 1018.0 0.0
14/04:00pm 22.9 19.6 15.0 61 4.7 NE 26 30 14 16 1018.0 1017.9 0.0
14/03:30pm 22.7 19.1 15.3 63 4.4 NE 28 32 15 17 1017.9 1017.8 0.0
14/03:00pm 22.9 19.1 14.7 60 4.8 NE 28 32 15 17 1017.9 1017.8 0.0
14/02:30pm 23.7 20.3 14.7 57 5.3 NE 26 30 14 16 1018.1 1018.0 0.0
14/02:00pm 23.6 20.3 14.9 58 5.2 NE 26 28 14 15 1018.4 1018.3 0.0
14/01:30pm 24.3 21.6 14.7 55 5.7 NE 22 28 12 15 1018.8 1018.7 0.0
14/01:00pm 23.8 21.4 13.9 54 5.8 NE 19 24 10 13 1019.3 1019.2 0.0
14/12:30pm 23.4 21.4 14.9 59 5.1 ENE 19 22 10 12 1020.0 1020.0 0.0
14/12:00pm 22.9 21.7 15.0 61 4.7 ENE 15 17 8 9 1020.5 1020.5 0.0
14/11:30am 21.9 20.3 13.8 60 4.7 ENE 15 17 8 9 1021.0 1021.0 0.0
14/11:00am 23.1 22.4 14.4 58 5.1 E 11 13 6 7 1021.6 1021.6 0.0
14/10:30am 21.4 20.8 14.6 65 4.0 E 11 11 6 6 1022.1 1022.1 0.0
14/10:00am 22.2 21.5 14.3 61 4.6 ESE 11 13 6 7 1022.6 1022.6 0.0
14/09:30am 22.1 21.5 14.5 62 4.5 SE 11 15 6 8 1022.8 1022.8 0.0
14/09:00am 20.5 20.8 14.4 68 3.5 NW 6 9 3 5 1022.9 1022.9 0.0
14/08:30am 19.8 19.8 14.2 70 3.2 WNW 7 13 4 7 1023.0 1023.0 0.0
14/08:00am 18.5 18.0 13.8 74 2.7 WNW 9 15 5 8 1022.9 1022.9 0.0
14/07:30am 16.9 16.0 13.6 81 1.9 WNW 11 13 6 7 1022.9 1022.9 0.0
14/07:00am 15.3 14.6 13.3 88 1.1 W 9 15 5 8 1022.8 1022.8 0.0
14/06:30am 13.6 12.6 12.2 91 0.8 W 9 13 5 7 1022.5 1022.5 0.0
14/06:00am 12.7 11.0 11.3 91 0.7 W 11 15 6 8 1022.3 1022.3 0.0
14/05:30am 12.8 11.5 11.2 90 0.8 W 9 13 5 7 1022.2 1022.2 0.0
14/05:00am 13.1 11.4 11.3 89 0.9 WSW 11 13 6 7 1022.0 1022.0 0.0
14/04:30am 12.9 10.8 11.1 89 0.9 WSW 13 15 7 8 1021.8 1021.8 0.0
14/04:00am 12.9 10.8 11.0 88 1.0 WSW 13 15 7 8 1021.7 1021.7 0.0
14/03:30am 13.1 11.4 11.2 88 1.0 WSW 11 15 6 8 1021.7 1021.7 0.0
14/03:00am 13.5 11.5 11.4 87 1.1 WSW 13 15 7 8 1021.5 1021.5 0.0
14/02:30am 14.1 12.3 12.0 87 1.1 WSW 13 17 7 9 1021.8 1021.8 0.0
14/02:00am 14.1 12.3 12.0 87 1.1 WSW 13 15 7 8 1021.9 1021.9 0.0
14/01:30am 14.3 12.5 12.0 86 1.2 WSW 13 15 7 8 1022.4 1022.4 0.0
14/01:00am 14.6 12.4 12.1 85 1.3 WSW 15 17 8 9 1022.8 1022.8 0.0
14/12:30am 14.8 13.8 12.3 85 1.4 WSW 9 11 5 6 1022.8 1022.8 0.0
14/12:00am 15.1 13.8 12.6 85 1.4 WSW 11 13 6 7 1023.1 1023.1 0.0
 
Date/Time
EST
Temp
°C
App
Temp
°C
Dew
Point
°C
Rel
Hum
%
Delta-T
°C
Wind Press
QNH
hPa
Press
MSL
hPa
Rain since
9am
mm
Dir  Spd
km/h
Gust
km/h
Spd
kts
Gust
kts
13/11:30pm 15.5 14.7 13.0 85 1.4 WSW 9 11 5 6 1023.0 1023.0 0.0
13/11:00pm 16.2 15.7 13.9 86 1.3 WSW 9 13 5 7 1023.1 1023.1 0.0
13/10:30pm 16.9 16.2 14.4 85 1.4 SSW 11 13 6 7 1022.9 1022.9 0.0
13/10:00pm 17.7 16.9 15.0 84 1.6 S 13 17 7 9 1022.9 1022.9 0.0
13/09:30pm 17.6 16.6 14.7 83 1.7 S 13 15 7 8 1023.0 1023.0 0.0
13/09:00pm 18.1 16.9 15.0 82 1.8 SSE 15 17 8 9 1022.8 1022.8 0.0
13/08:30pm 18.4 16.9 15.3 82 1.8 SSE 17 19 9 10 1022.4 1022.4 0.0
13/08:00pm 18.8 17.2 14.9 78 2.3 SSE 17 20 9 11 1022.2 1022.2 0.0
13/07:30pm 18.9 17.4 14.2 74 2.7 SSE 15 19 8 10 1021.9 1021.9 0.0
13/07:00pm 19.3 16.6 13.5 69 3.3 SSE 20 28 11 15 1021.4 1021.4 0.0
13/06:30pm 19.7 16.0 11.5 59 4.5 SSE 22 28 12 15 1021.1 1021.1 0.0
13/06:00pm 20.4 16.9 10.2 52 5.5 SE 19 22 10 12 1020.7 1020.7 0.0
13/05:30pm 21.0 15.9 9.3 47 6.2 SE 26 32 14 17 1020.2 1020.2 0.0
13/05:00pm 21.8 16.2 8.7 43 6.9 SE 28 33 15 18 1019.5 1019.4 0.0
13/04:30pm 22.6 16.6 7.2 37 8.0 SE 28 33 15 18 1019.1 1019.0 0.0
13/04:00pm 23.2 16.6 6.1 33 8.7 SE 30 33 16 18 1018.6 1018.5 0.0
13/03:30pm 25.1 18.3 3.1 24 10.7 SE 28 32 15 17 1018.1 1018.0 0.0
13/03:00pm 25.5 21.5 5.1 27 10.3 ESE 15 20 8 11 1017.8 1017.7 0.0
13/02:30pm 28.0 22.6 -1.0 15 13.4 SSE 17 24 9 13 1017.6 1017.5 0.0
13/02:00pm 28.4 22.7 -3.7 12 14.2 S 17 22 9 12 1017.7 1017.6 0.0
13/01:30pm 28.4 20.6 -3.7 12 14.2 S 28 35 15 19 1017.9 1017.8 0.0
13/01:29pm 29.0 21.3 -3.2 12 14.4 S 28 35 15 19 1018.0 1017.9 0.0
13/01:00pm 29.0 25.1 -4.4 11 14.6 ESE 7 9 4 5 1018.4 1018.3 0.0
13/12:30pm 27.2 23.5 2.3 20 12.1 E 11 13 6 7 1018.8 1018.7 0.0
13/12:00pm 28.0 24.3 -0.1 16 13.2 E 9 11 5 6 1019.0 1018.9 0.0
13/11:30am 26.1 23.9 7.7 31 9.8 E 9 11 5 6 1019.3 1019.2 0.0
13/11:00am 24.5 23.2 11.1 43 7.5 ESE 9 11 5 6 1019.9 1019.9 0.0
13/10:30am 23.0 21.4 11.4 48 6.5 SE 11 13 6 7 1020.2 1020.2 0.0
13/10:00am 23.1 21.0 9.8 43 7.2 SE 11 13 6 7 1020.5 1020.5 0.0
13/09:30am 21.2 19.4 10.7 51 5.7 SE 11 15 6 8 1021.0 1021.0 0.0
13/09:00am 20.0 18.0 10.1 53 5.3 SSE 11 13 6 7 1021.2 1021.2 0.0
13/08:30am 19.0 17.5 10.6 58 4.5 WNW 9 13 5 7 1021.4 1021.4 0.0
13/08:00am 18.0 17.1 11.3 65 3.6 NW 7 13 4 7 1021.5 1021.5 0.0
13/07:30am 16.2 14.4 10.7 70 2.9 NW 11 15 6 8 1021.4 1021.4 0.0
13/07:00am 14.9 13.8 11.9 82 1.6 N 9 9 5 5 1021.4 1021.4 0.0
13/06:30am 12.1 11.0 9.8 86 1.2 N 6 7 3 4 1021.3 1021.3 0.0
13/06:00am 10.8 9.2 8.7 87 1.0 N 7 11 4 6 1021.0 1021.0 0.0
13/05:30am 10.3 8.6 8.4 88 0.9 W 7 9 4 5 1021.3 1021.3 0.0
13/05:00am 10.5 9.0 8.6 88 0.9 W 6 9 3 5 1021.1 1021.1 0.0
13/04:30am 11.1 10.5 9.0 87 1.0 W 2 7 1 4 1020.9 1020.9 0.0
13/04:00am 11.4 10.8 9.0 85 1.2 W 2 6 1 3 1020.9 1020.9 0.0
13/03:30am 11.4 10.1 9.1 86 1.1 W 6 7 3 4 1021.1 1021.1 0.0
13/03:00am 12.1 10.9 9.7 85 1.2 W 6 6 3 3 1021.1 1021.1 0.0
13/02:30am 11.7 10.9 9.6 87 1.1 W 4 7 2 4 1021.5 1021.5 0.0
13/02:00am 12.3 11.9 9.9 85 1.2 W 2 7 1 4 1021.9 1021.9 0.0
13/01:30am 12.3 10.9 9.7 84 1.3 WNW 7 9 4 5 1022.2 1022.2 0.0
13/01:00am 13.0 11.9 10.0 82 1.5 WNW 6 7 3 4 1022.3 1022.3 0.0
13/12:30am 13.7 12.6 10.5 81 1.7 NNW 7 9 4 5 1022.5 1022.5 0.0
13/12:00am 14.5 12.8 11.1 80 1.8 NNW 11 13 6 7 1022.7 1022.7 0.0
 
Date/Time
EST
Temp
°C
App
Temp
°C
Dew
Point
°C
Rel
Hum
%
Delta-T
°C
Wind Press
QNH
hPa
Press
MSL
hPa
Rain since
9am
mm
Dir  Spd
km/h
Gust
km/h
Spd
kts
Gust
kts
12/11:30pm 14.7 13.0 11.1 79 1.9 NNW 11 17 6 9 1022.9 1022.9 0.0
12/11:00pm 15.6 12.9 11.6 77 2.1 NNW 17 26 9 14 1023.2 1023.2 0.0
12/10:30pm 16.0 13.3 11.8 76 2.3 N 17 24 9 13 1023.2 1023.2 0.0
12/10:00pm 16.1 13.8 11.7 75 2.4 N 15 19 8 10 1023.3 1023.3 0.0
12/09:30pm 16.1 13.8 11.9 76 2.3 N 15 20 8 11 1023.2 1023.2 0.0
12/09:00pm 16.1 14.2 11.9 76 2.3 NNW 13 17 7 9 1023.6 1023.6 0.0
12/08:30pm 16.6 15.2 12.2 75 2.4 NNW 11 15 6 8 1023.9 1023.9 0.0
12/08:00pm 16.9 15.1 12.2 74 2.6 N 13 17 7 9 1024.1 1024.1 0.0
12/07:30pm 17.4 15.3 12.5 73 2.7 N 15 20 8 11 1023.9 1023.9 0.0
12/07:00pm 17.7 14.7 12.4 71 2.9 N 20 24 11 13 1023.8 1023.8 0.0
12/06:30pm 17.9 14.5 12.4 70 3.1 NNE 22 26 12 14 1023.5 1023.5 0.0
12/06:00pm 18.0 13.2 11.8 67 3.4 NNE 28 32 15 17 1023.3 1023.3 0.0
12/05:30pm 18.4 13.6 11.5 64 3.8 NNE 28 33 15 18 1023.1 1023.1 0.0
12/05:00pm 18.9 14.2 10.7 59 4.4 NNE 26 30 14 16 1023.1 1023.1 0.0
12/04:30pm 19.3 14.7 9.8 54 5.1 NE 24 26 13 14 1023.0 1023.0 0.0

Other formats

Comma delimited format used in spreadsheet applications
http://www.bom.gov.au/fwo/IDQ60801/IDQ60801.95591.axf

JavaScript Object Notation format (JSON) in row-major order
http://www.bom.gov.au/fwo/IDQ60801/IDQ60801.95591.json

Data quality

Most of these data are generated automatically and are frequently updated. Quality checks on data are not normally performed. It is possible for incorrect values to appear. Refer to information at About Latest Weather Observations and please check the disclaimer before using these data.